sensor_id;sensor_type;location;lat;lon;timestamp;P1;durP1;ratioP1;P2;durP2;ratioP2
22248;SDS011;67538;52.180;5.646;2023-05-07T00:00:57;11.57;;;7.90;;
22248;SDS011;67538;52.180;5.646;2023-05-07T00:03:24;11.98;;;8.27;;
22248;SDS011;67538;52.180;5.646;2023-05-07T00:05:52;12.07;;;8.90;;
22248;SDS011;67538;52.180;5.646;2023-05-07T00:08:19;10.35;;;8.70;;
22248;SDS011;67538;52.180;5.646;2023-05-07T00:10:46;14.85;;;8.93;;
22248;SDS011;67538;52.180;5.646;2023-05-07T00:13:13;15.90;;;9.07;;
22248;SDS011;67538;52.180;5.646;2023-05-07T00:15:42;11.73;;;9.27;;
22248;SDS011;67538;52.180;5.646;2023-05-07T00:18:09;12.70;;;9.00;;
22248;SDS011;67538;52.180;5.646;2023-05-07T00:20:36;10.35;;;8.30;;
22248;SDS011;67538;52.180;5.646;2023-05-07T00:23:03;14.48;;;9.23;;
22248;SDS011;67538;52.180;5.646;2023-05-07T00:25:30;11.27;;;8.38;;
22248;SDS011;67538;52.180;5.646;2023-05-07T00:27:57;12.63;;;8.80;;
22248;SDS011;67538;52.180;5.646;2023-05-07T00:30:28;12.40;;;9.00;;
22248;SDS011;67538;52.180;5.646;2023-05-07T00:32:57;14.90;;;9.75;;
22248;SDS011;67538;52.180;5.646;2023-05-07T00:35:24;12.93;;;9.80;;
22248;SDS011;67538;52.180;5.646;2023-05-07T00:37:51;14.23;;;9.10;;
22248;SDS011;67538;52.180;5.646;2023-05-07T00:40:18;11.90;;;8.85;;
22248;SDS011;67538;52.180;5.646;2023-05-07T00:42:45;14.80;;;9.60;;
22248;SDS011;67538;52.180;5.646;2023-05-07T00:45:14;14.60;;;9.60;;
22248;SDS011;67538;52.180;5.646;2023-05-07T00:47:41;12.75;;;9.05;;
22248;SDS011;67538;52.180;5.646;2023-05-07T00:50:10;13.63;;;9.23;;
22248;SDS011;67538;52.180;5.646;2023-05-07T00:52:37;12.80;;;8.75;;
22248;SDS011;67538;52.180;5.646;2023-05-07T00:55:07;13.35;;;8.88;;
22248;SDS011;67538;52.180;5.646;2023-05-07T00:57:35;12.15;;;8.63;;
22248;SDS011;67538;52.180;5.646;2023-05-07T01:00:03;15.35;;;9.20;;
22248;SDS011;67538;52.180;5.646;2023-05-07T01:02:31;11.87;;;9.03;;
22248;SDS011;67538;52.180;5.646;2023-05-07T01:04:58;16.10;;;9.30;;
22248;SDS011;67538;52.180;5.646;2023-05-07T01:07:29;12.23;;;9.20;;
22248;SDS011;67538;52.180;5.646;2023-05-07T01:09:58;12.48;;;9.13;;
22248;SDS011;67538;52.180;5.646;2023-05-07T01:12:26;12.97;;;8.83;;
22248;SDS011;67538;52.180;5.646;2023-05-07T01:14:54;11.45;;;8.70;;
22248;SDS011;67538;52.180;5.646;2023-05-07T01:17:21;11.77;;;9.15;;
22248;SDS011;67538;52.180;5.646;2023-05-07T01:19:49;13.30;;;9.20;;
22248;SDS011;67538;52.180;5.646;2023-05-07T01:22:23;13.83;;;9.37;;
22248;SDS011;67538;52.180;5.646;2023-05-07T01:24:55;13.13;;;8.83;;
22248;SDS011;67538;52.180;5.646;2023-05-07T01:27:22;12.35;;;8.93;;
22248;SDS011;67538;52.180;5.646;2023-05-07T01:29:49;12.93;;;9.35;;
22248;SDS011;67538;52.180;5.646;2023-05-07T01:32:16;13.23;;;9.23;;
22248;SDS011;67538;52.180;5.646;2023-05-07T01:34:47;12.05;;;8.95;;
22248;SDS011;67538;52.180;5.646;2023-05-07T01:37:16;13.00;;;9.38;;
22248;SDS011;67538;52.180;5.646;2023-05-07T01:39:45;13.70;;;9.52;;
22248;SDS011;67538;52.180;5.646;2023-05-07T01:42:13;11.75;;;8.43;;
22248;SDS011;67538;52.180;5.646;2023-05-07T01:44:40;15.57;;;9.57;;
22248;SDS011;67538;52.180;5.646;2023-05-07T01:47:07;16.27;;;10.05;;
22248;SDS011;67538;52.180;5.646;2023-05-07T01:49:35;12.40;;;9.80;;
22248;SDS011;67538;52.180;5.646;2023-05-07T01:52:03;14.02;;;9.57;;
22248;SDS011;67538;52.180;5.646;2023-05-07T01:54:30;13.55;;;10.13;;
22248;SDS011;67538;52.180;5.646;2023-05-07T01:56:58;13.43;;;9.77;;
22248;SDS011;67538;52.180;5.646;2023-05-07T01:59:26;15.63;;;10.15;;
22248;SDS011;67538;52.180;5.646;2023-05-07T02:01:53;13.88;;;10.43;;
22248;SDS011;67538;52.180;5.646;2023-05-07T02:04:20;13.80;;;10.65;;
22248;SDS011;67538;52.180;5.646;2023-05-07T02:06:47;15.43;;;10.63;;
22248;SDS011;67538;52.180;5.646;2023-05-07T02:09:14;15.98;;;10.93;;
22248;SDS011;67538;52.180;5.646;2023-05-07T02:11:41;16.02;;;10.80;;
22248;SDS011;67538;52.180;5.646;2023-05-07T02:14:09;17.67;;;11.40;;
22248;SDS011;67538;52.180;5.646;2023-05-07T02:16:37;15.25;;;11.10;;
22248;SDS011;67538;52.180;5.646;2023-05-07T02:19:04;17.02;;;11.10;;
22248;SDS011;67538;52.180;5.646;2023-05-07T02:21:31;16.67;;;11.27;;
22248;SDS011;67538;52.180;5.646;2023-05-07T02:23:58;14.18;;;11.68;;
22248;SDS011;67538;52.180;5.646;2023-05-07T02:26:25;16.38;;;12.25;;
22248;SDS011;67538;52.180;5.646;2023-05-07T02:28:52;17.33;;;11.85;;
22248;SDS011;67538;52.180;5.646;2023-05-07T02:31:20;15.20;;;11.95;;
22248;SDS011;67538;52.180;5.646;2023-05-07T02:33:47;14.18;;;11.45;;
22248;SDS011;67538;52.180;5.646;2023-05-07T02:36:14;15.23;;;11.80;;
22248;SDS011;67538;52.180;5.646;2023-05-07T02:38:41;17.05;;;12.55;;
22248;SDS011;67538;52.180;5.646;2023-05-07T02:41:08;17.02;;;12.48;;
22248;SDS011;67538;52.180;5.646;2023-05-07T02:43:36;17.13;;;12.70;;
22248;SDS011;67538;52.180;5.646;2023-05-07T02:46:03;19.13;;;13.80;;
22248;SDS011;67538;52.180;5.646;2023-05-07T02:48:32;20.03;;;14.13;;
22248;SDS011;67538;52.180;5.646;2023-05-07T02:51:00;19.55;;;14.30;;
22248;SDS011;67538;52.180;5.646;2023-05-07T02:53:27;21.20;;;14.70;;
22248;SDS011;67538;52.180;5.646;2023-05-07T02:55:55;18.30;;;14.70;;
22248;SDS011;67538;52.180;5.646;2023-05-07T02:58:23;20.00;;;15.03;;
22248;SDS011;67538;52.180;5.646;2023-05-07T03:00:50;17.70;;;15.20;;
22248;SDS011;67538;52.180;5.646;2023-05-07T03:03:18;19.92;;;14.55;;
22248;SDS011;67538;52.180;5.646;2023-05-07T03:05:46;18.10;;;14.88;;
22248;SDS011;67538;52.180;5.646;2023-05-07T03:08:13;19.23;;;14.93;;
22248;SDS011;67538;52.180;5.646;2023-05-07T03:10:40;20.58;;;15.30;;
22248;SDS011;67538;52.180;5.646;2023-05-07T03:13:07;21.48;;;15.27;;
22248;SDS011;67538;52.180;5.646;2023-05-07T03:15:34;20.00;;;15.65;;
22248;SDS011;67538;52.180;5.646;2023-05-07T03:18:01;20.85;;;16.73;;
22248;SDS011;67538;52.180;5.646;2023-05-07T03:20:28;19.02;;;16.35;;
22248;SDS011;67538;52.180;5.646;2023-05-07T03:22:57;21.92;;;16.45;;
22248;SDS011;67538;52.180;5.646;2023-05-07T03:25:24;23.75;;;16.88;;
22248;SDS011;67538;52.180;5.646;2023-05-07T03:27:51;23.20;;;17.20;;
22248;SDS011;67538;52.180;5.646;2023-05-07T03:30:18;21.75;;;17.45;;
22248;SDS011;67538;52.180;5.646;2023-05-07T03:32:45;23.85;;;17.58;;
22248;SDS011;67538;52.180;5.646;2023-05-07T03:35:12;22.50;;;17.70;;
22248;SDS011;67538;52.180;5.646;2023-05-07T03:37:39;23.90;;;17.73;;
22248;SDS011;67538;52.180;5.646;2023-05-07T03:40:08;22.35;;;17.67;;
22248;SDS011;67538;52.180;5.646;2023-05-07T03:42:37;29.50;;;18.77;;
22248;SDS011;67538;52.180;5.646;2023-05-07T03:45:04;24.42;;;19.42;;
22248;SDS011;67538;52.180;5.646;2023-05-07T03:47:32;23.50;;;19.08;;
22248;SDS011;67538;52.180;5.646;2023-05-07T03:49:59;26.90;;;18.90;;
22248;SDS011;67538;52.180;5.646;2023-05-07T03:52:26;25.88;;;19.02;;
22248;SDS011;67538;52.180;5.646;2023-05-07T03:54:53;23.35;;;17.95;;
22248;SDS011;67538;52.180;5.646;2023-05-07T03:57:21;26.23;;;18.60;;
22248;SDS011;67538;52.180;5.646;2023-05-07T03:59:48;23.38;;;18.88;;
22248;SDS011;67538;52.180;5.646;2023-05-07T04:02:15;24.17;;;19.30;;
22248;SDS011;67538;52.180;5.646;2023-05-07T04:04:43;26.95;;;19.80;;
22248;SDS011;67538;52.180;5.646;2023-05-07T04:07:09;25.63;;;19.65;;
22248;SDS011;67538;52.180;5.646;2023-05-07T04:09:36;28.35;;;20.23;;
22248;SDS011;67538;52.180;5.646;2023-05-07T04:12:04;25.42;;;19.33;;
22248;SDS011;67538;52.180;5.646;2023-05-07T04:14:33;28.63;;;20.90;;
22248;SDS011;67538;52.180;5.646;2023-05-07T04:17:00;26.45;;;21.08;;
22248;SDS011;67538;52.180;5.646;2023-05-07T04:19:27;28.58;;;20.60;;
22248;SDS011;67538;52.180;5.646;2023-05-07T04:21:55;29.23;;;22.30;;
22248;SDS011;67538;52.180;5.646;2023-05-07T04:24:21;29.15;;;22.65;;
22248;SDS011;67538;52.180;5.646;2023-05-07T04:26:49;30.83;;;24.27;;
22248;SDS011;67538;52.180;5.646;2023-05-07T04:29:16;30.52;;;23.58;;
22248;SDS011;67538;52.180;5.646;2023-05-07T04:31:45;28.17;;;24.63;;
22248;SDS011;67538;52.180;5.646;2023-05-07T04:34:12;32.20;;;25.30;;
22248;SDS011;67538;52.180;5.646;2023-05-07T04:36:39;32.28;;;26.00;;
22248;SDS011;67538;52.180;5.646;2023-05-07T04:39:06;33.70;;;26.60;;
22248;SDS011;67538;52.180;5.646;2023-05-07T04:41:33;37.60;;;26.73;;
22248;SDS011;67538;52.180;5.646;2023-05-07T04:44:01;38.47;;;25.60;;
22248;SDS011;67538;52.180;5.646;2023-05-07T04:46:31;37.25;;;25.42;;
22248;SDS011;67538;52.180;5.646;2023-05-07T04:48:59;31.88;;;26.25;;
22248;SDS011;67538;52.180;5.646;2023-05-07T04:51:26;32.10;;;26.35;;
22248;SDS011;67538;52.180;5.646;2023-05-07T04:53:53;31.67;;;26.38;;
22248;SDS011;67538;52.180;5.646;2023-05-07T04:56:20;33.92;;;27.20;;
22248;SDS011;67538;52.180;5.646;2023-05-07T04:58:47;48.63;;;27.50;;
22248;SDS011;67538;52.180;5.646;2023-05-07T05:01:14;34.92;;;27.00;;
22248;SDS011;67538;52.180;5.646;2023-05-07T05:03:41;36.22;;;26.92;;
22248;SDS011;67538;52.180;5.646;2023-05-07T05:06:10;38.80;;;27.65;;
22248;SDS011;67538;52.180;5.646;2023-05-07T05:08:37;38.47;;;26.50;;
22248;SDS011;67538;52.180;5.646;2023-05-07T05:11:04;34.45;;;26.95;;
22248;SDS011;67538;52.180;5.646;2023-05-07T05:13:31;34.58;;;26.80;;
22248;SDS011;67538;52.180;5.646;2023-05-07T05:15:58;31.83;;;27.13;;
22248;SDS011;67538;52.180;5.646;2023-05-07T05:18:25;34.00;;;27.92;;
22248;SDS011;67538;52.180;5.646;2023-05-07T05:20:52;33.70;;;28.40;;
22248;SDS011;67538;52.180;5.646;2023-05-07T05:23:20;34.17;;;27.80;;
22248;SDS011;67538;52.180;5.646;2023-05-07T05:25:47;33.97;;;28.20;;
22248;SDS011;67538;52.180;5.646;2023-05-07T05:28:14;31.35;;;27.63;;
22248;SDS011;67538;52.180;5.646;2023-05-07T05:30:41;33.67;;;27.20;;
22248;SDS011;67538;52.180;5.646;2023-05-07T05:33:08;34.17;;;27.15;;
22248;SDS011;67538;52.180;5.646;2023-05-07T05:35:35;31.23;;;26.23;;
22248;SDS011;67538;52.180;5.646;2023-05-07T05:38:02;32.33;;;26.42;;
22248;SDS011;67538;52.180;5.646;2023-05-07T05:40:31;29.58;;;25.80;;
22248;SDS011;67538;52.180;5.646;2023-05-07T05:42:58;28.92;;;24.75;;
22248;SDS011;67538;52.180;5.646;2023-05-07T05:45:25;28.30;;;24.55;;
22248;SDS011;67538;52.180;5.646;2023-05-07T05:47:52;31.83;;;25.50;;
22248;SDS011;67538;52.180;5.646;2023-05-07T05:50:19;28.45;;;25.25;;
22248;SDS011;67538;52.180;5.646;2023-05-07T05:52:46;30.63;;;25.98;;
22248;SDS011;67538;52.180;5.646;2023-05-07T05:55:14;27.63;;;24.10;;
22248;SDS011;67538;52.180;5.646;2023-05-07T05:57:42;29.83;;;24.90;;
22248;SDS011;67538;52.180;5.646;2023-05-07T06:00:09;27.80;;;24.63;;
22248;SDS011;67538;52.180;5.646;2023-05-07T06:02:37;27.83;;;24.90;;
22248;SDS011;67538;52.180;5.646;2023-05-07T06:05:04;30.48;;;25.98;;
22248;SDS011;67538;52.180;5.646;2023-05-07T06:07:32;28.70;;;25.60;;
22248;SDS011;67538;52.180;5.646;2023-05-07T06:09:59;30.48;;;26.50;;
22248;SDS011;67538;52.180;5.646;2023-05-07T06:12:26;29.65;;;25.38;;
22248;SDS011;67538;52.180;5.646;2023-05-07T06:14:55;29.67;;;25.05;;
22248;SDS011;67538;52.180;5.646;2023-05-07T06:17:22;28.48;;;24.52;;
22248;SDS011;67538;52.180;5.646;2023-05-07T06:19:49;28.95;;;25.13;;
22248;SDS011;67538;52.180;5.646;2023-05-07T06:22:16;27.70;;;24.65;;
22248;SDS011;67538;52.180;5.646;2023-05-07T06:24:43;28.95;;;25.67;;
22248;SDS011;67538;52.180;5.646;2023-05-07T06:27:11;30.05;;;26.50;;
22248;SDS011;67538;52.180;5.646;2023-05-07T06:29:38;29.65;;;25.60;;
22248;SDS011;67538;52.180;5.646;2023-05-07T06:32:10;29.00;;;24.63;;
22248;SDS011;67538;52.180;5.646;2023-05-07T06:34:38;28.30;;;25.30;;
22248;SDS011;67538;52.180;5.646;2023-05-07T06:37:06;29.27;;;24.85;;
22248;SDS011;67538;52.180;5.646;2023-05-07T06:39:33;27.03;;;23.17;;
22248;SDS011;67538;52.180;5.646;2023-05-07T06:42:00;27.53;;;24.23;;
22248;SDS011;67538;52.180;5.646;2023-05-07T06:44:29;28.60;;;23.70;;
22248;SDS011;67538;52.180;5.646;2023-05-07T06:46:56;28.90;;;24.30;;
22248;SDS011;67538;52.180;5.646;2023-05-07T06:49:25;28.73;;;24.73;;
22248;SDS011;67538;52.180;5.646;2023-05-07T06:51:52;27.75;;;23.88;;
22248;SDS011;67538;52.180;5.646;2023-05-07T06:54:19;28.67;;;24.63;;
22248;SDS011;67538;52.180;5.646;2023-05-07T06:56:46;28.17;;;24.42;;
22248;SDS011;67538;52.180;5.646;2023-05-07T06:59:13;27.45;;;24.15;;
22248;SDS011;67538;52.180;5.646;2023-05-07T07:01:40;29.02;;;23.85;;
22248;SDS011;67538;52.180;5.646;2023-05-07T07:04:07;28.95;;;22.77;;
22248;SDS011;67538;52.180;5.646;2023-05-07T07:06:36;25.30;;;21.73;;
22248;SDS011;67538;52.180;5.646;2023-05-07T07:09:03;24.23;;;21.58;;
22248;SDS011;67538;52.180;5.646;2023-05-07T07:11:30;25.80;;;21.00;;
22248;SDS011;67538;52.180;5.646;2023-05-07T07:13:57;25.13;;;20.70;;
22248;SDS011;67538;52.180;5.646;2023-05-07T07:16:24;24.33;;;21.03;;
22248;SDS011;67538;52.180;5.646;2023-05-07T07:18:51;26.33;;;21.13;;
22248;SDS011;67538;52.180;5.646;2023-05-07T07:21:18;25.00;;;21.47;;
22248;SDS011;67538;52.180;5.646;2023-05-07T07:23:46;24.52;;;21.65;;
22248;SDS011;67538;52.180;5.646;2023-05-07T07:26:13;26.95;;;21.80;;
22248;SDS011;67538;52.180;5.646;2023-05-07T07:28:43;27.42;;;20.52;;
22248;SDS011;67538;52.180;5.646;2023-05-07T07:31:10;25.05;;;21.20;;
22248;SDS011;67538;52.180;5.646;2023-05-07T07:33:37;25.00;;;21.05;;
22248;SDS011;67538;52.180;5.646;2023-05-07T07:36:05;25.70;;;21.53;;
22248;SDS011;67538;52.180;5.646;2023-05-07T07:38:32;27.15;;;21.80;;
22248;SDS011;67538;52.180;5.646;2023-05-07T07:41:01;27.73;;;23.10;;
22248;SDS011;67538;52.180;5.646;2023-05-07T07:43:28;29.33;;;23.17;;
22248;SDS011;67538;52.180;5.646;2023-05-07T07:45:55;26.50;;;22.63;;
22248;SDS011;67538;52.180;5.646;2023-05-07T07:48:22;26.38;;;23.17;;
22248;SDS011;67538;52.180;5.646;2023-05-07T07:50:50;29.83;;;23.33;;
22248;SDS011;67538;52.180;5.646;2023-05-07T07:53:17;26.90;;;22.60;;
22248;SDS011;67538;52.180;5.646;2023-05-07T07:55:44;29.52;;;23.08;;
22248;SDS011;67538;52.180;5.646;2023-05-07T07:58:13;28.83;;;23.83;;
22248;SDS011;67538;52.180;5.646;2023-05-07T08:00:40;31.58;;;24.20;;
22248;SDS011;67538;52.180;5.646;2023-05-07T08:03:08;31.75;;;24.92;;
22248;SDS011;67538;52.180;5.646;2023-05-07T08:05:36;29.30;;;23.17;;
22248;SDS011;67538;52.180;5.646;2023-05-07T08:08:04;32.15;;;24.08;;
22248;SDS011;67538;52.180;5.646;2023-05-07T08:10:31;29.98;;;23.75;;
22248;SDS011;67538;52.180;5.646;2023-05-07T08:13:00;27.42;;;22.48;;
22248;SDS011;67538;52.180;5.646;2023-05-07T08:15:29;28.88;;;22.80;;
22248;SDS011;67538;52.180;5.646;2023-05-07T08:17:57;26.70;;;21.65;;
22248;SDS011;67538;52.180;5.646;2023-05-07T08:20:25;28.25;;;22.00;;
22248;SDS011;67538;52.180;5.646;2023-05-07T08:22:52;29.13;;;22.23;;
22248;SDS011;67538;52.180;5.646;2023-05-07T08:25:19;28.45;;;22.20;;
22248;SDS011;67538;52.180;5.646;2023-05-07T08:27:46;28.10;;;22.02;;
22248;SDS011;67538;52.180;5.646;2023-05-07T08:30:13;27.80;;;21.58;;
22248;SDS011;67538;52.180;5.646;2023-05-07T08:32:42;26.52;;;20.88;;
22248;SDS011;67538;52.180;5.646;2023-05-07T08:35:09;25.35;;;20.98;;
22248;SDS011;67538;52.180;5.646;2023-05-07T08:37:36;25.05;;;21.05;;
22248;SDS011;67538;52.180;5.646;2023-05-07T08:40:04;26.88;;;22.00;;
22248;SDS011;67538;52.180;5.646;2023-05-07T08:42:32;28.10;;;22.70;;
22248;SDS011;67538;52.180;5.646;2023-05-07T08:45:03;27.58;;;22.52;;
22248;SDS011;67538;52.180;5.646;2023-05-07T08:47:38;28.50;;;22.92;;
22248;SDS011;67538;52.180;5.646;2023-05-07T08:50:11;27.67;;;22.33;;
22248;SDS011;67538;52.180;5.646;2023-05-07T08:52:39;27.52;;;22.65;;
22248;SDS011;67538;52.180;5.646;2023-05-07T08:55:07;29.95;;;23.52;;
22248;SDS011;67538;52.180;5.646;2023-05-07T08:57:35;29.23;;;23.67;;
22248;SDS011;67538;52.180;5.646;2023-05-07T09:00:02;29.98;;;24.10;;
22248;SDS011;67538;52.180;5.646;2023-05-07T09:02:32;31.38;;;24.23;;
22248;SDS011;67538;52.180;5.646;2023-05-07T09:04:59;28.08;;;23.63;;
22248;SDS011;67538;52.180;5.646;2023-05-07T09:07:28;31.55;;;24.25;;
22248;SDS011;67538;52.180;5.646;2023-05-07T09:09:56;32.08;;;24.20;;
22248;SDS011;67538;52.180;5.646;2023-05-07T09:12:24;30.25;;;23.95;;
22248;SDS011;67538;52.180;5.646;2023-05-07T09:14:51;30.40;;;24.73;;
22248;SDS011;67538;52.180;5.646;2023-05-07T09:17:18;31.85;;;24.42;;
22248;SDS011;67538;52.180;5.646;2023-05-07T09:19:45;30.98;;;24.13;;
22248;SDS011;67538;52.180;5.646;2023-05-07T09:22:12;27.98;;;23.45;;
22248;SDS011;67538;52.180;5.646;2023-05-07T09:24:41;30.25;;;23.80;;
22248;SDS011;67538;52.180;5.646;2023-05-07T09:27:14;30.42;;;23.75;;
22248;SDS011;67538;52.180;5.646;2023-05-07T09:29:41;32.95;;;24.80;;
22248;SDS011;67538;52.180;5.646;2023-05-07T09:32:09;31.80;;;24.17;;
22248;SDS011;67538;52.180;5.646;2023-05-07T09:34:36;29.83;;;24.30;;
22248;SDS011;67538;52.180;5.646;2023-05-07T09:37:03;30.02;;;24.17;;
22248;SDS011;67538;52.180;5.646;2023-05-07T09:39:42;29.65;;;23.48;;
22248;SDS011;67538;52.180;5.646;2023-05-07T09:42:10;29.23;;;23.60;;
22248;SDS011;67538;52.180;5.646;2023-05-07T09:44:39;30.63;;;23.60;;
22248;SDS011;67538;52.180;5.646;2023-05-07T09:47:07;30.20;;;24.70;;
22248;SDS011;67538;52.180;5.646;2023-05-07T09:49:34;30.83;;;24.75;;
22248;SDS011;67538;52.180;5.646;2023-05-07T09:52:03;33.78;;;25.40;;
22248;SDS011;67538;52.180;5.646;2023-05-07T09:54:34;33.28;;;25.70;;
22248;SDS011;67538;52.180;5.646;2023-05-07T09:57:04;30.23;;;24.80;;
22248;SDS011;67538;52.180;5.646;2023-05-07T09:59:32;31.80;;;25.87;;
22248;SDS011;67538;52.180;5.646;2023-05-07T10:02:00;33.40;;;26.73;;
22248;SDS011;67538;52.180;5.646;2023-05-07T10:04:29;35.07;;;27.27;;
22248;SDS011;67538;52.180;5.646;2023-05-07T10:06:58;33.50;;;27.88;;
22248;SDS011;67538;52.180;5.646;2023-05-07T10:09:26;34.50;;;27.42;;
22248;SDS011;67538;52.180;5.646;2023-05-07T10:11:53;39.92;;;27.67;;
22248;SDS011;67538;52.180;5.646;2023-05-07T10:14:22;35.67;;;27.42;;
22248;SDS011;67538;52.180;5.646;2023-05-07T10:16:50;35.40;;;28.25;;
22248;SDS011;67538;52.180;5.646;2023-05-07T10:19:19;37.20;;;28.53;;
22248;SDS011;67538;52.180;5.646;2023-05-07T10:21:48;34.47;;;28.35;;
22248;SDS011;67538;52.180;5.646;2023-05-07T10:24:25;35.40;;;28.17;;
22248;SDS011;67538;52.180;5.646;2023-05-07T10:26:53;35.42;;;27.98;;
22248;SDS011;67538;52.180;5.646;2023-05-07T10:29:35;33.65;;;27.48;;
22248;SDS011;67538;52.180;5.646;2023-05-07T10:32:14;31.15;;;25.55;;
22248;SDS011;67538;52.180;5.646;2023-05-07T10:34:56;31.25;;;25.25;;
22248;SDS011;67538;52.180;5.646;2023-05-07T10:37:26;31.20;;;24.25;;
22248;SDS011;67538;52.180;5.646;2023-05-07T10:39:54;34.30;;;26.33;;
22248;SDS011;67538;52.180;5.646;2023-05-07T10:42:22;32.10;;;25.47;;
22248;SDS011;67538;52.180;5.646;2023-05-07T10:44:51;31.70;;;26.58;;
22248;SDS011;67538;52.180;5.646;2023-05-07T10:47:18;33.95;;;26.33;;
22248;SDS011;67538;52.180;5.646;2023-05-07T10:52:48;31.33;;;25.47;;
22248;SDS011;67538;52.180;5.646;2023-05-07T10:58:56;28.10;;;23.83;;
22248;SDS011;67538;52.180;5.646;2023-05-07T11:01:52;27.77;;;23.03;;
22248;SDS011;67538;52.180;5.646;2023-05-07T11:04:20;29.58;;;22.90;;
22248;SDS011;67538;52.180;5.646;2023-05-07T11:10:01;27.13;;;22.03;;
22248;SDS011;67538;52.180;5.646;2023-05-07T11:15:35;24.42;;;20.90;;
22248;SDS011;67538;52.180;5.646;2023-05-07T11:18:05;27.05;;;21.15;;
22248;SDS011;67538;52.180;5.646;2023-05-07T11:20:49;27.10;;;20.63;;
22248;SDS011;67538;52.180;5.646;2023-05-07T11:26:45;25.45;;;21.02;;
22248;SDS011;67538;52.180;5.646;2023-05-07T11:29:14;27.27;;;21.17;;
22248;SDS011;67538;52.180;5.646;2023-05-07T11:31:42;24.80;;;21.07;;
22248;SDS011;67538;52.180;5.646;2023-05-07T11:34:11;25.23;;;20.83;;
22248;SDS011;67538;52.180;5.646;2023-05-07T11:36:41;23.75;;;20.17;;
22248;SDS011;67538;52.180;5.646;2023-05-07T11:39:23;24.05;;;18.83;;
22248;SDS011;67538;52.180;5.646;2023-05-07T11:41:51;24.20;;;19.45;;
22248;SDS011;67538;52.180;5.646;2023-05-07T11:44:18;23.50;;;19.35;;
22248;SDS011;67538;52.180;5.646;2023-05-07T11:46:45;24.60;;;19.67;;
22248;SDS011;67538;52.180;5.646;2023-05-07T11:49:13;23.20;;;19.15;;
22248;SDS011;67538;52.180;5.646;2023-05-07T11:51:40;23.63;;;18.98;;
22248;SDS011;67538;52.180;5.646;2023-05-07T11:54:08;25.08;;;18.98;;
22248;SDS011;67538;52.180;5.646;2023-05-07T11:56:36;26.88;;;20.35;;
22248;SDS011;67538;52.180;5.646;2023-05-07T11:59:04;27.15;;;20.98;;
22248;SDS011;67538;52.180;5.646;2023-05-07T12:01:31;24.77;;;19.48;;
22248;SDS011;67538;52.180;5.646;2023-05-07T12:04:02;26.67;;;21.63;;
22248;SDS011;67538;52.180;5.646;2023-05-07T12:06:35;28.15;;;22.30;;
22248;SDS011;67538;52.180;5.646;2023-05-07T12:09:03;26.67;;;21.17;;
22248;SDS011;67538;52.180;5.646;2023-05-07T12:11:32;25.50;;;21.25;;
22248;SDS011;67538;52.180;5.646;2023-05-07T12:13:59;29.00;;;21.65;;
22248;SDS011;67538;52.180;5.646;2023-05-07T12:16:26;25.60;;;19.63;;
22248;SDS011;67538;52.180;5.646;2023-05-07T12:18:55;26.80;;;20.83;;
22248;SDS011;67538;52.180;5.646;2023-05-07T12:21:24;25.60;;;19.90;;
22248;SDS011;67538;52.180;5.646;2023-05-07T12:23:52;29.60;;;19.88;;
22248;SDS011;67538;52.180;5.646;2023-05-07T12:26:19;24.95;;;19.35;;
22248;SDS011;67538;52.180;5.646;2023-05-07T12:28:47;24.75;;;19.90;;
22248;SDS011;67538;52.180;5.646;2023-05-07T12:31:14;25.90;;;19.85;;
22248;SDS011;67538;52.180;5.646;2023-05-07T12:33:42;25.95;;;19.20;;
22248;SDS011;67538;52.180;5.646;2023-05-07T12:36:11;24.25;;;18.55;;
22248;SDS011;67538;52.180;5.646;2023-05-07T12:38:39;23.73;;;19.10;;
22248;SDS011;67538;52.180;5.646;2023-05-07T12:41:08;25.77;;;19.10;;
22248;SDS011;67538;52.180;5.646;2023-05-07T12:43:37;24.08;;;18.55;;
22248;SDS011;67538;52.180;5.646;2023-05-07T12:46:06;22.52;;;17.52;;
22248;SDS011;67538;52.180;5.646;2023-05-07T12:48:35;22.38;;;17.25;;
22248;SDS011;67538;52.180;5.646;2023-05-07T12:51:04;23.38;;;17.23;;
22248;SDS011;67538;52.180;5.646;2023-05-07T12:53:32;21.27;;;16.90;;
22248;SDS011;67538;52.180;5.646;2023-05-07T12:56:01;21.00;;;15.73;;
22248;SDS011;67538;52.180;5.646;2023-05-07T12:58:33;19.05;;;15.88;;
22248;SDS011;67538;52.180;5.646;2023-05-07T13:01:04;21.57;;;16.17;;
22248;SDS011;67538;52.180;5.646;2023-05-07T13:03:32;23.48;;;16.17;;
22248;SDS011;67538;52.180;5.646;2023-05-07T13:06:00;22.25;;;15.82;;
22248;SDS011;67538;52.180;5.646;2023-05-07T13:08:30;20.57;;;15.77;;
22248;SDS011;67538;52.180;5.646;2023-05-07T13:10:58;24.38;;;15.93;;
22248;SDS011;67538;52.180;5.646;2023-05-07T13:13:28;20.98;;;15.55;;
22248;SDS011;67538;52.180;5.646;2023-05-07T13:15:57;20.58;;;16.10;;
22248;SDS011;67538;52.180;5.646;2023-05-07T13:18:24;20.90;;;15.77;;
22248;SDS011;67538;52.180;5.646;2023-05-07T13:20:52;20.48;;;16.63;;
22248;SDS011;67538;52.180;5.646;2023-05-07T13:23:19;25.00;;;17.17;;
22248;SDS011;67538;52.180;5.646;2023-05-07T13:25:47;20.70;;;16.30;;
22248;SDS011;67538;52.180;5.646;2023-05-07T13:28:14;19.43;;;15.07;;
22248;SDS011;67538;52.180;5.646;2023-05-07T13:30:41;20.20;;;14.07;;
22248;SDS011;67538;52.180;5.646;2023-05-07T13:33:10;20.00;;;13.40;;
22248;SDS011;67538;52.180;5.646;2023-05-07T13:35:37;18.42;;;12.60;;
22248;SDS011;67538;52.180;5.646;2023-05-07T13:38:04;17.55;;;12.02;;
22248;SDS011;67538;52.180;5.646;2023-05-07T13:40:31;19.83;;;13.40;;
22248;SDS011;67538;52.180;5.646;2023-05-07T13:42:58;17.75;;;12.82;;
22248;SDS011;67538;52.180;5.646;2023-05-07T13:45:27;19.25;;;12.02;;
22248;SDS011;67538;52.180;5.646;2023-05-07T13:47:54;20.42;;;11.77;;
22248;SDS011;67538;52.180;5.646;2023-05-07T13:50:23;16.80;;;12.65;;
22248;SDS011;67538;52.180;5.646;2023-05-07T13:52:52;19.50;;;12.80;;
22248;SDS011;67538;52.180;5.646;2023-05-07T13:55:19;18.30;;;13.20;;
22248;SDS011;67538;52.180;5.646;2023-05-07T13:57:47;18.63;;;13.35;;
22248;SDS011;67538;52.180;5.646;2023-05-07T14:00:20;20.52;;;14.60;;
22248;SDS011;67538;52.180;5.646;2023-05-07T14:02:47;20.23;;;14.05;;
22248;SDS011;67538;52.180;5.646;2023-05-07T14:05:14;21.33;;;15.10;;
22248;SDS011;67538;52.180;5.646;2023-05-07T14:07:43;18.85;;;14.27;;
22248;SDS011;67538;52.180;5.646;2023-05-07T14:10:10;17.58;;;14.05;;
22248;SDS011;67538;52.180;5.646;2023-05-07T14:12:38;20.58;;;15.50;;
22248;SDS011;67538;52.180;5.646;2023-05-07T14:15:05;22.55;;;16.23;;
22248;SDS011;67538;52.180;5.646;2023-05-07T14:17:33;25.42;;;16.38;;
22248;SDS011;67538;52.180;5.646;2023-05-07T14:20:00;28.17;;;16.55;;
22248;SDS011;67538;52.180;5.646;2023-05-07T14:22:27;25.60;;;15.73;;
22248;SDS011;67538;52.180;5.646;2023-05-07T14:24:56;17.58;;;13.82;;
22248;SDS011;67538;52.180;5.646;2023-05-07T14:27:23;23.90;;;15.57;;
22248;SDS011;67538;52.180;5.646;2023-05-07T14:29:50;22.53;;;16.60;;
22248;SDS011;67538;52.180;5.646;2023-05-07T14:32:17;27.87;;;18.17;;
22248;SDS011;67538;52.180;5.646;2023-05-07T14:34:44;25.80;;;17.88;;
22248;SDS011;67538;52.180;5.646;2023-05-07T14:37:12;29.60;;;16.60;;
22248;SDS011;67538;52.180;5.646;2023-05-07T14:39:39;26.85;;;14.57;;
22248;SDS011;67538;52.180;5.646;2023-05-07T14:42:08;19.30;;;13.70;;
22248;SDS011;67538;52.180;5.646;2023-05-07T14:44:35;28.17;;;16.05;;